»·PEaware :: N851TX KSAN-KPSP

N851TX :: KSAN-KPSP

FLIGHT INFORMATION

Flight Status: Arrived
Operator: Privately registered:
United States
More flights under this callsign
Pilot: Sanjiv S. (4490)
Aircraft: SOCATA TBM-900
(TBM9)
More flights by this aircraft type
Origin: KSAN San Diego Intl-Lindbergh
United States
Destination: KPSP Palm Springs Intl
United States
More flights between these airports :: More routes between these airports
Route: +JLI V208 TRM
File this flight plan on PilotEdge
Remarks:
Altitude:
(Current/Filed)
15,000ft
Speed:
(Current/Filed)
240kts
Departed: 05-Dec-18 08:54 AM
Arrived: 05-Dec-18 09:29 AM
Distance/Time
Traveled:
74nm/0:35
Distance/Time
To Go:
Arrived

Flight Plot

Page will automatically refresh every two minutes.


Map Options




Map Legend


Flown Route
Filed Route
Departure Airport
Arrival Airport
Navaid (VOR, NDB)
Fix

Horizontal Profiles

Position Reports

Time Latitude Longitude Heading Altitude Ground
Speed
05-Dec-18 08:13 32.733074 -117.178955 127 18ft 0kts
05-Dec-18 08:14 32.733074 -117.178955 127 18ft 0kts
05-Dec-18 08:15 32.733074 -117.178955 127 18ft 0kts
05-Dec-18 08:16 32.733074 -117.178955 127 18ft 0kts
05-Dec-18 08:16 32.733074 -117.178955 127 18ft 0kts
05-Dec-18 08:18 32.733074 -117.178955 127 18ft 0kts
05-Dec-18 08:18 32.733074 -117.178955 127 18ft 0kts
05-Dec-18 08:19 32.733074 -117.178955 127 18ft 0kts
05-Dec-18 08:20 32.733074 -117.178955 127 18ft 0kts
05-Dec-18 08:21 32.733074 -117.178955 127 18ft 0kts
05-Dec-18 08:22 32.733074 -117.178955 127 18ft 0kts
05-Dec-18 08:28 32.733074 -117.178955 127 18ft 0kts
05-Dec-18 08:29 32.733074 -117.178955 127 18ft 0kts
05-Dec-18 08:30 32.733074 -117.178955 127 18ft 0kts
05-Dec-18 08:31 32.733074 -117.178955 127 18ft 0kts
05-Dec-18 08:32 32.733074 -117.178955 127 18ft 0kts
05-Dec-18 08:33 32.733074 -117.178955 127 18ft 0kts
05-Dec-18 08:34 32.733074 -117.178955 127 18ft 0kts
05-Dec-18 08:35 32.733074 -117.178955 127 18ft 0kts
05-Dec-18 08:36 32.733074 -117.178955 127 18ft 0kts
05-Dec-18 08:37 32.733074 -117.178955 127 18ft 0kts
05-Dec-18 08:38 32.733074 -117.178955 127 18ft 0kts
05-Dec-18 08:39 32.733074 -117.178955 127 18ft 0kts
05-Dec-18 08:40 32.733074 -117.178955 127 18ft 0kts
05-Dec-18 08:41 32.733074 -117.178955 127 18ft 0kts
05-Dec-18 08:42 32.733074 -117.178955 127 18ft 0kts
05-Dec-18 08:43 32.733074 -117.178955 127 18ft 0kts
05-Dec-18 08:44 32.733074 -117.178955 127 18ft 0kts
05-Dec-18 08:45 32.733074 -117.178955 127 18ft 0kts
05-Dec-18 08:46 32.733074 -117.178955 127 18ft 0kts
05-Dec-18 08:47 32.733074 -117.178955 127 18ft 0kts
05-Dec-18 08:48 32.733074 -117.178955 127 18ft 0kts
05-Dec-18 08:49 32.733060 -117.178933 127 18ft 3kts
05-Dec-18 08:50 32.731296 -117.176322 112 18ft 10kts
05-Dec-18 08:51 32.730884 -117.175420 161 18ft 0kts
05-Dec-18 08:52 32.730684 -117.175332 157 18ft 4kts
05-Dec-18 08:53 32.730753 -117.177923 278 18ft 70kts
05-Dec-18 08:54 32.739101 -117.210742 287 983ft 120kts
05-Dec-18 08:55 32.747673 -117.247660 286 2600ft 125kts
05-Dec-18 08:56 32.756193 -117.285517 271 4418ft 138kts
05-Dec-18 08:57 32.725500 -117.303198 181 6327ft 158kts
05-Dec-18 08:58 32.683762 -117.307276 181 7985ft 174kts
05-Dec-18 08:59 32.645109 -117.284872 102 8024ft 221kts
05-Dec-18 09:00 32.638209 -117.218926 79 7961ft 243kts
05-Dec-18 09:01 32.671148 -117.173120 51 9024ft 223kts
05-Dec-18 09:02 32.704437 -117.130975 50 10176ft 213kts
05-Dec-18 09:03 32.738943 -117.087913 47 11421ft 210kts
05-Dec-18 09:04 32.775208 -117.042992 47 12752ft 207kts
05-Dec-18 09:05 32.812724 -116.996308 46 14155ft 219kts
05-Dec-18 09:06 32.856923 -116.941222 46 15011ft 256kts
05-Dec-18 09:07 32.908197 -116.877238 46 14991ft 288kts
05-Dec-18 09:08 32.966517 -116.804333 46 14978ft 297kts
05-Dec-18 09:09 33.026907 -116.728677 46 14978ft 299kts
05-Dec-18 09:10 33.087879 -116.652118 47 14978ft 300kts
05-Dec-18 09:11 33.132771 -116.595636 47 14971ft 300kts
05-Dec-18 09:12 33.193081 -116.540260 35 14976ft 301kts
05-Dec-18 09:13 33.256836 -116.484891 35 14986ft 301kts
05-Dec-18 09:14 33.323951 -116.426460 35 14998ft 301kts
05-Dec-18 09:15 33.390332 -116.368547 35 14709ft 307kts
05-Dec-18 09:16 33.446543 -116.319428 36 13595ft 311kts
05-Dec-18 09:17 33.509776 -116.264064 36 12325ft 309kts
05-Dec-18 09:18 33.574542 -116.207218 35 11010ft 305kts
05-Dec-18 09:19 33.641571 -116.187465 313 9773ft 253kts
05-Dec-18 09:20 33.676214 -116.242971 301 8506ft 200kts
05-Dec-18 09:21 33.689124 -116.301692 280 6590ft 179kts
05-Dec-18 09:22 33.705527 -116.354050 301 4716ft 176kts
05-Dec-18 09:23 33.733872 -116.398356 314 3022ft 175kts
05-Dec-18 09:24 33.759261 -116.439991 298 2270ft 174kts
05-Dec-18 09:25 33.785961 -116.469298 325 1253ft 124kts
05-Dec-18 09:26 33.807492 -116.488049 325 902ft 97kts
05-Dec-18 09:27 33.823737 -116.502395 325 482ft 66kts
05-Dec-18 09:28 33.827861 -116.507194 180 480ft 0kts
05-Dec-18 09:29 33.827861 -116.507194 180 480ft 0kts
05-Dec-18 09:30 33.826839 -116.507137 154 480ft 9kts
05-Dec-18 09:31 33.825364 -116.508513 273 480ft 11kts
05-Dec-18 09:32 33.825904 -116.508741 266 480ft 0kts
05-Dec-18 09:33 33.825903 -116.508750 266 480ft 0kts

Navigation Log

Ident Type
Flight plan parsing failed, navigation log unavailable